createdAt,value
2023-01-29T00:02:31.196Z,99749.29
2023-01-29T00:05:35.939Z,99740.52
2023-01-29T00:08:42.407Z,99733.95
2023-01-29T00:11:48.716Z,99738.14
2023-01-29T00:14:53.265Z,99740.13
2023-01-29T00:17:59.552Z,99742.91
2023-01-29T00:21:04.224Z,99749.24
2023-01-29T00:24:11.290Z,99748.48
2023-01-29T00:27:17.647Z,99746.95
2023-01-29T00:30:22.891Z,99747.39
2023-01-29T00:33:30.480Z,99749.77
2023-01-29T00:36:36.614Z,99758.02
2023-01-29T00:39:48.186Z,99757.27
2023-01-29T00:43:08.888Z,99753.23
2023-01-29T00:46:14.996Z,99753.52
2023-01-29T00:49:21.307Z,99755.27
2023-01-29T00:52:25.953Z,99756.86
2023-01-29T00:55:32.217Z,99755.63
2023-01-29T00:58:38.392Z,99759.69
2023-01-29T01:02:02.110Z,99758.52
2023-01-29T01:05:14.239Z,99757.15
2023-01-29T01:08:37.720Z,99760.13
2023-01-29T01:11:43.827Z,99766.05
2023-01-29T01:14:51.079Z,99764.08
2023-01-29T01:17:58.682Z,99756.66
2023-01-29T01:21:05.271Z,99759.30
2023-01-29T01:24:12.077Z,99764.27
2023-01-29T01:27:19.695Z,99763.45
2023-01-29T01:30:26.939Z,99766.36
2023-01-29T01:33:33.152Z,99766.98
2023-01-29T01:36:39.210Z,99769.27
2023-01-29T01:39:49.296Z,99763.42
2023-01-29T01:42:57.441Z,99760.58
2023-01-29T01:46:03.752Z,99760.91
2023-01-29T01:49:11.579Z,99762.75
2023-01-29T01:52:18.827Z,99772.55
2023-01-29T01:55:29.409Z,99773.16
2023-01-29T01:58:39.346Z,99769.44
2023-01-29T02:01:51.401Z,99775.48
2023-01-29T02:05:15.679Z,99775.56
2023-01-29T02:08:44.776Z,99779.48
2023-01-29T02:11:51.713Z,99771.66
2023-01-29T02:14:58.235Z,99768.95
2023-01-29T02:18:04.603Z,99769.29
2023-01-29T02:21:25.157Z,99767.86
2023-01-29T02:25:13.375Z,99762.23
2023-01-29T02:28:49.092Z,99751.59
2023-01-29T02:31:58.250Z,99738.46
2023-01-29T02:35:28.775Z,99730.23
2023-01-29T02:38:43.149Z,99723.62
2023-01-29T02:41:57.785Z,99721.03
2023-01-29T02:45:12.557Z,99720.80
2023-01-29T02:48:21.809Z,99716.67
2023-01-29T02:51:34.913Z,99715.98
2023-01-29T02:54:46.815Z,99716.09
2023-01-29T02:57:57.505Z,99720.02
2023-01-29T03:01:09.225Z,99715.88
2023-01-29T03:04:20.990Z,99721.36
2023-01-29T03:07:44.633Z,99725.96
2023-01-29T03:10:55.948Z,99729.61
2023-01-29T03:14:07.840Z,99729.15
2023-01-29T03:17:14.135Z,99723.71
2023-01-29T03:20:21.136Z,99727.05
2023-01-29T03:23:48.136Z,99725.70
2023-01-29T03:27:13.139Z,99731.91
2023-01-29T03:30:39.191Z,99739.96
2023-01-29T03:33:50.701Z,99736.84
2023-01-29T03:37:00.311Z,99742.48
2023-01-29T03:40:08.343Z,99744.23
2023-01-29T03:43:22.059Z,99742.95
2023-01-29T03:46:33.600Z,99743.83
2023-01-29T03:49:55.064Z,99741.02
2023-01-29T03:53:08.463Z,99742.02
2023-01-29T03:56:26.442Z,99745.33
2023-01-29T03:59:41.102Z,99747.58
2023-01-29T04:02:52.290Z,99746.70
2023-01-29T04:06:05.615Z,99748.12
2023-01-29T04:09:20.405Z,99745.85
2023-01-29T04:12:30.955Z,99739.84
2023-01-29T04:15:41.521Z,99735.23
2023-01-29T04:18:49.827Z,99732.11
2023-01-29T04:22:05.223Z,99728.46
2023-01-29T04:25:16.662Z,99724.48
2023-01-29T04:28:28.956Z,99722.23
2023-01-29T04:31:41.090Z,99712.05
2023-01-29T04:34:58.625Z,99706.75
2023-01-29T04:38:12.660Z,99710.01
2023-01-29T04:41:26.028Z,99716.92
2023-01-29T04:44:40.244Z,99722.62
2023-01-29T04:47:55.346Z,99719.71
2023-01-29T04:51:11.815Z,99725.68
2023-01-29T04:54:23.983Z,99725.52
2023-01-29T04:57:46.398Z,99720.45
2023-01-29T05:00:56.002Z,99710.48
2023-01-29T05:04:06.814Z,99699.45
2023-01-29T05:07:16.414Z,99688.95
2023-01-29T05:10:24.369Z,99684.47
2023-01-29T05:13:33.196Z,99688.11
2023-01-29T05:16:44.081Z,99683.02
2023-01-29T05:19:50.648Z,99680.94
2023-01-29T05:22:57.031Z,99680.08
2023-01-29T05:26:03.316Z,99678.48
2023-01-29T05:29:07.765Z,99675.56
2023-01-29T05:32:13.963Z,99676.92
2023-01-29T05:35:20.742Z,99679.09
2023-01-29T05:38:27.298Z,99675.41
2023-01-29T05:41:33.607Z,99670.77
2023-01-29T05:44:38.134Z,99675.30
2023-01-29T05:47:44.391Z,99677.94
2023-01-29T05:50:48.897Z,99679.73
2023-01-29T05:53:55.085Z,99677.73
2023-01-29T05:57:01.294Z,99683.95
2023-01-29T06:00:09.412Z,99691.36
2023-01-29T06:03:16.827Z,99698.33
2023-01-29T06:06:23.023Z,99705.73
2023-01-29T06:09:29.268Z,99710.81
2023-01-29T06:12:33.758Z,99713.98
2023-01-29T06:15:42.338Z,99718.94
2023-01-29T06:18:48.503Z,99721.42
2023-01-29T06:21:54.596Z,99727.68
2023-01-29T06:25:00.868Z,99732.42
2023-01-29T06:28:07.695Z,99736.00
2023-01-29T06:31:38.496Z,99737.38
2023-01-29T06:34:40.704Z,99748.14
2023-01-29T06:37:46.973Z,99752.72
2023-01-29T06:40:51.515Z,99753.63
2023-01-29T06:43:57.699Z,99752.21
2023-01-29T06:47:03.915Z,99745.44
2023-01-29T06:50:12.764Z,99746.67
2023-01-29T06:53:19.328Z,99754.27
2023-01-29T06:56:25.632Z,99756.55
2023-01-29T06:59:30.121Z,99765.20
2023-01-29T07:02:36.372Z,99773.54
2023-01-29T07:05:42.648Z,99775.23
2023-01-29T07:08:47.277Z,99774.39
2023-01-29T07:11:53.492Z,99776.45
2023-01-29T07:14:59.733Z,99777.77
2023-01-29T07:18:11.971Z,99782.02
2023-01-29T07:21:18.359Z,99780.39
2023-01-29T07:24:22.883Z,99783.20
2023-01-29T07:27:29.188Z,99782.35
2023-01-29T07:30:33.886Z,99781.91
2023-01-29T07:33:40.076Z,99781.50
2023-01-29T07:36:46.363Z,99773.38
2023-01-29T07:39:50.940Z,99769.98
2023-01-29T07:43:02.677Z,99769.24
2023-01-29T07:46:09.295Z,99771.06
2023-01-29T07:49:15.607Z,99774.11
2023-01-29T07:52:22.134Z,99773.52
2023-01-29T07:55:29.010Z,99780.05
2023-01-29T07:58:36.727Z,99788.40
2023-01-29T08:01:43.170Z,99795.13
2023-01-29T08:04:49.574Z,99799.98
2023-01-29T08:08:06.177Z,99811.79
2023-01-29T08:11:13.092Z,99822.25
2023-01-29T08:14:17.701Z,99825.25
2023-01-29T08:17:23.981Z,99831.43
2023-01-29T08:20:28.562Z,99834.68
2023-01-29T08:23:34.871Z,99836.65
2023-01-29T08:26:39.375Z,99839.23
2023-01-29T08:29:45.709Z,99842.24
2023-01-29T08:32:50.279Z,99846.13
2023-01-29T08:35:56.531Z,99857.13
2023-01-29T08:39:02.914Z,99860.55
2023-01-29T08:42:09.144Z,99860.16
2023-01-29T08:45:15.964Z,99866.98
2023-01-29T08:48:22.321Z,99872.71
2023-01-29T08:51:28.867Z,99881.54
2023-01-29T08:54:35.106Z,99882.91
2023-01-29T08:57:41.860Z,99875.77
2023-01-29T09:00:48.508Z,99867.55
2023-01-29T09:03:54.708Z,99859.70
2023-01-29T09:07:00.934Z,99852.27
2023-01-29T09:10:08.251Z,99853.77
2023-01-29T09:13:14.392Z,99859.11
2023-01-29T09:16:20.688Z,99860.77
2023-01-29T09:19:25.208Z,99855.52
2023-01-29T09:22:31.453Z,99844.48
2023-01-29T09:25:38.077Z,99837.98
2023-01-29T09:28:44.399Z,99831.73
2023-01-29T09:31:50.821Z,99821.17
2023-01-29T09:34:57.129Z,99817.03
2023-01-29T09:38:03.407Z,99822.62
2023-01-29T09:41:16.415Z,99830.22
2023-01-29T09:44:32.608Z,99824.77
2023-01-29T09:47:39.496Z,99821.25
2023-01-29T09:50:49.238Z,99816.01
2023-01-29T09:54:06.325Z,99809.21
2023-01-29T09:57:17.033Z,99802.05
2023-01-29T10:00:27.875Z,99796.77
2023-01-29T10:03:51.699Z,99793.02
2023-01-29T10:07:16.317Z,99792.88
2023-01-29T10:10:44.044Z,99784.33
2023-01-29T10:13:58.107Z,99778.68
2023-01-29T10:17:20.481Z,99763.23
2023-01-29T10:20:50.904Z,99756.98
2023-01-29T10:24:08.609Z,99746.36
2023-01-29T10:27:20.017Z,99738.83
2023-01-29T10:30:32.579Z,99732.14
2023-01-29T10:33:49.592Z,99729.56
2023-01-29T10:37:16.070Z,99730.61
2023-01-29T10:40:25.197Z,99736.15
2023-01-29T10:43:39.134Z,99732.71
2023-01-29T10:47:02.056Z,99728.59
2023-01-29T10:50:26.686Z,99724.18
2023-01-29T10:53:49.957Z,99711.42
2023-01-29T10:57:09.343Z,99706.89
2023-01-29T11:00:22.040Z,99702.22
2023-01-29T11:03:30.866Z,99692.66
2023-01-29T11:06:38.493Z,99684.23
2023-01-29T11:09:52.028Z,99674.49
2023-01-29T11:12:59.409Z,99660.59
2023-01-29T11:16:09.527Z,99652.23
2023-01-29T11:19:15.739Z,99646.13
2023-01-29T11:22:23.716Z,99632.43
2023-01-29T11:25:32.781Z,99628.11
2023-01-29T11:28:44.389Z,99621.20
2023-01-29T11:31:50.767Z,99617.42
2023-01-29T11:35:06.014Z,99612.23
2023-01-29T11:38:23.326Z,99608.45
2023-01-29T11:41:29.636Z,99605.04
2023-01-29T11:44:36.682Z,99595.05
2023-01-29T11:47:43.048Z,99587.90
2023-01-29T11:50:52.224Z,99577.46
2023-01-29T11:54:00.355Z,99583.29
2023-01-29T11:57:19.384Z,99582.32
2023-01-29T12:00:29.000Z,99570.22
2023-01-29T12:03:41.376Z,99564.23
2023-01-29T12:06:52.096Z,99561.45
2023-01-29T12:10:00.707Z,99553.20
2023-01-29T12:13:26.907Z,99551.18
2023-01-29T12:16:39.757Z,99547.31
2023-01-29T12:19:52.402Z,99544.15
2023-01-29T12:23:06.857Z,99540.52
2023-01-29T12:26:16.109Z,99531.27
2023-01-29T12:29:33.326Z,99534.61
2023-01-29T12:32:46.629Z,99533.11
2023-01-29T12:35:59.957Z,99532.83
2023-01-29T12:39:06.645Z,99534.95
2023-01-29T12:42:18.320Z,99534.62
2023-01-29T12:45:29.198Z,99539.61
2023-01-29T12:48:39.761Z,99548.02
2023-01-29T12:51:54.547Z,99546.88
2023-01-29T12:55:05.434Z,99548.73
2023-01-29T12:58:17.811Z,99542.27
2023-01-29T13:01:32.992Z,99540.23
2023-01-29T13:04:42.558Z,99544.23
2023-01-29T13:07:53.469Z,99543.77
2023-01-29T13:11:03.562Z,99540.86
2023-01-29T13:14:20.832Z,99538.74
2023-01-29T13:17:32.434Z,99543.97
2023-01-29T13:20:40.124Z,99541.40
2023-01-29T13:23:51.214Z,99545.34
2023-01-29T13:26:57.682Z,99543.38
2023-01-29T13:30:04.986Z,99544.39
2023-01-29T13:33:22.400Z,99540.09
2023-01-29T13:36:31.524Z,99536.45
2023-01-29T13:39:44.722Z,99539.20
2023-01-29T13:42:54.375Z,99534.55
2023-01-29T13:46:07.793Z,99526.29
2023-01-29T13:49:29.856Z,99526.15
2023-01-29T13:52:43.083Z,99524.12
2023-01-29T13:55:49.684Z,99523.19
2023-01-29T13:58:58.202Z,99525.64
2023-01-29T14:02:26.221Z,99529.00
2023-01-29T14:05:43.678Z,99526.28
2023-01-29T14:08:49.884Z,99534.13
2023-01-29T14:11:56.384Z,99530.69
2023-01-29T14:15:23.348Z,99522.78
2023-01-29T14:18:30.871Z,99527.02
2023-01-29T14:21:39.106Z,99528.23
2023-01-29T14:24:45.783Z,99526.30
2023-01-29T14:27:53.866Z,99530.38
2023-01-29T14:31:00.757Z,99535.02
2023-01-29T14:34:15.161Z,99537.21
2023-01-29T14:37:29.597Z,99540.41
2023-01-29T14:40:37.418Z,99544.13
2023-01-29T14:43:43.850Z,99545.17
2023-01-29T14:46:50.586Z,99528.82
2023-01-29T14:49:58.039Z,99524.05
2023-01-29T14:53:08.837Z,99521.10
2023-01-29T14:56:19.705Z,99517.99
2023-01-29T14:59:29.367Z,99509.38
2023-01-29T15:02:42.467Z,99503.23
2023-01-29T15:05:49.952Z,99503.14
2023-01-29T15:09:04.011Z,99503.54
2023-01-29T15:12:19.563Z,99500.13
2023-01-29T15:15:34.653Z,99498.52
2023-01-29T15:18:43.205Z,99497.27
2023-01-29T15:22:11.025Z,99494.79
2023-01-29T15:25:20.551Z,99484.79
2023-01-29T15:28:28.415Z,99483.01
2023-01-29T15:31:36.359Z,99483.74
2023-01-29T15:34:45.598Z,99488.88
2023-01-29T15:38:04.426Z,99486.34
2023-01-29T15:41:21.480Z,99483.13
2023-01-29T15:44:28.074Z,99479.39
2023-01-29T15:47:35.702Z,99475.88
2023-01-29T15:50:44.753Z,99472.36
2023-01-29T15:53:54.620Z,99466.12
2023-01-29T15:57:01.829Z,99464.77
2023-01-29T16:00:21.466Z,99460.73
2023-01-29T16:03:29.699Z,99460.34
2023-01-29T16:06:41.264Z,99455.13
2023-01-29T16:09:48.188Z,99450.56
2023-01-29T16:12:55.352Z,99454.03
2023-01-29T16:16:04.373Z,99454.95
2023-01-29T16:19:24.409Z,99448.35
2023-01-29T16:22:33.888Z,99439.88
2023-01-29T16:25:41.737Z,99439.17
2023-01-29T16:28:49.090Z,99445.85
2023-01-29T16:32:01.970Z,99453.79
2023-01-29T16:35:15.218Z,99451.45
2023-01-29T16:38:29.963Z,99450.54
2023-01-29T16:41:38.337Z,99455.58
2023-01-29T16:44:51.134Z,99466.61
2023-01-29T16:48:24.227Z,99474.46
2023-01-29T16:51:32.691Z,99474.70
2023-01-29T16:54:45.378Z,99472.08
2023-01-29T16:57:55.657Z,99477.86
2023-01-29T17:01:04.804Z,99479.96
2023-01-29T17:04:15.123Z,99481.20
2023-01-29T17:07:22.440Z,99489.84
2023-01-29T17:10:30.553Z,99492.16
2023-01-29T17:13:40.169Z,99487.98
2023-01-29T17:16:55.263Z,99471.06
2023-01-29T17:20:11.803Z,99464.83
2023-01-29T17:23:18.393Z,99464.27
2023-01-29T17:26:25.873Z,99459.81
2023-01-29T17:29:33.388Z,99455.20
2023-01-29T17:32:43.595Z,99453.24
2023-01-29T17:35:52.139Z,99452.21
2023-01-29T17:38:58.322Z,99447.39
2023-01-29T17:42:04.634Z,99437.29
2023-01-29T17:45:10.849Z,99430.64
2023-01-29T17:48:20.532Z,99427.67
2023-01-29T17:51:26.810Z,99427.48
2023-01-29T17:54:31.298Z,99430.80
2023-01-29T17:57:37.676Z,99427.55
2023-01-29T18:00:43.982Z,99417.70
2023-01-29T18:03:48.475Z,99410.80
2023-01-29T18:06:55.562Z,99413.09
2023-01-29T18:10:01.861Z,99420.41
2023-01-29T18:13:06.356Z,99413.54
2023-01-29T18:16:12.700Z,99405.02
2023-01-29T18:19:23.138Z,99403.11
2023-01-29T18:22:29.368Z,99404.16
2023-01-29T18:25:35.735Z,99400.30
2023-01-29T18:28:43.811Z,99395.96
2023-01-29T18:31:51.774Z,99391.52
2023-01-29T18:34:58.376Z,99394.47
2023-01-29T18:38:04.714Z,99397.23
2023-01-29T18:41:10.708Z,99399.03
2023-01-29T18:44:17.049Z,99399.69
2023-01-29T18:47:21.592Z,99401.16
2023-01-29T18:50:28.183Z,99405.00
2023-01-29T18:53:34.673Z,99402.64
2023-01-29T18:57:07.746Z,99404.96
2023-01-29T19:00:09.809Z,99401.94
2023-01-29T19:03:16.137Z,99399.88
2023-01-29T19:06:20.632Z,99401.35
2023-01-29T19:09:27.036Z,99398.22
2023-01-29T19:12:33.875Z,99393.77
2023-01-29T19:15:42.405Z,99388.80
2023-01-29T19:18:48.764Z,99384.77
2023-01-29T19:21:54.556Z,99379.96
2023-01-29T19:25:01.001Z,99378.02
2023-01-29T19:28:08.077Z,99371.23
2023-01-29T19:31:14.658Z,99367.89
2023-01-29T19:34:20.966Z,99365.81
2023-01-29T19:37:25.958Z,99363.27
2023-01-29T19:40:32.369Z,99358.23
2023-01-29T19:43:42.092Z,99356.11
2023-01-29T19:46:48.339Z,99353.91
2023-01-29T19:49:52.892Z,99350.10
2023-01-29T19:52:59.762Z,99346.03
2023-01-29T19:56:07.657Z,99342.29
2023-01-29T19:59:15.404Z,99335.61
2023-01-29T20:02:21.745Z,99334.52
2023-01-29T20:05:27.255Z,99331.80
2023-01-29T20:08:33.912Z,99326.25
2023-01-29T20:11:40.259Z,99324.01
2023-01-29T20:14:48.976Z,99322.13
2023-01-29T20:17:55.334Z,99320.78
2023-01-29T20:20:59.819Z,99316.89
2023-01-29T20:24:07.191Z,99310.52
2023-01-29T20:27:13.735Z,99309.48
2023-01-29T20:30:21.125Z,99307.74
2023-01-29T20:33:27.709Z,99302.98
2023-01-29T20:36:34.019Z,99302.73
2023-01-29T20:39:38.650Z,99300.23
2023-01-29T20:42:45.126Z,99299.77
2023-01-29T20:45:51.380Z,99296.27
2023-01-29T20:48:56.860Z,99288.23
2023-01-29T20:52:03.104Z,99287.10
2023-01-29T20:55:11.583Z,99279.98
2023-01-29T20:58:17.949Z,99275.36
2023-01-29T21:01:22.723Z,99274.40
2023-01-29T21:04:31.438Z,99270.29
2023-01-29T21:07:37.663Z,99268.64
2023-01-29T21:10:45.162Z,99270.80
2023-01-29T21:13:53.415Z,99271.19
2023-01-29T21:16:59.776Z,99273.11
2023-01-29T21:20:05.409Z,99273.12
2023-01-29T21:23:11.829Z,99269.08
2023-01-29T21:26:16.353Z,99264.24
2023-01-29T21:29:22.616Z,99264.20
2023-01-29T21:32:28.202Z,99263.00
2023-01-29T21:35:37.892Z,99260.73
2023-01-29T21:38:44.181Z,99259.65
2023-01-29T21:42:06.885Z,99259.45
2023-01-29T21:45:14.228Z,99258.91
2023-01-29T21:48:20.473Z,99254.02
2023-01-29T21:51:27.142Z,99250.70
2023-01-29T21:54:35.832Z,99245.73
2023-01-29T21:57:43.123Z,99240.46
2023-01-29T22:00:49.876Z,99231.90
2023-01-29T22:03:56.056Z,99227.42
2023-01-29T22:07:02.467Z,99217.55
2023-01-29T22:10:10.065Z,99212.10
2023-01-29T22:13:16.355Z,99202.64
2023-01-29T22:16:22.588Z,99192.05
2023-01-29T22:19:29.258Z,99187.53
2023-01-29T22:22:35.565Z,99178.98
2023-01-29T22:25:40.087Z,99178.34
2023-01-29T22:28:46.407Z,99172.55
2023-01-29T22:31:50.940Z,99166.35
2023-01-29T22:34:57.594Z,99162.90
2023-01-29T22:38:03.886Z,99158.41
2023-01-29T22:41:09.416Z,99155.21
2023-01-29T22:44:15.847Z,99153.09
2023-01-29T22:47:22.072Z,99145.99
2023-01-29T22:50:28.328Z,99140.02
2023-01-29T22:53:32.840Z,99136.99
2023-01-29T22:56:39.092Z,99132.75
2023-01-29T22:59:43.551Z,99124.56
2023-01-29T23:02:51.000Z,99123.05
2023-01-29T23:05:57.241Z,99123.04
2023-01-29T23:09:03.498Z,99119.37
2023-01-29T23:12:08.982Z,99111.88
2023-01-29T23:15:15.825Z,99104.12
2023-01-29T23:18:22.093Z,99091.41
2023-01-29T23:21:27.401Z,99086.05
2023-01-29T23:24:33.829Z,99088.50
2023-01-29T23:27:40.085Z,99093.09
2023-01-29T23:30:45.451Z,99079.71
2023-01-29T23:33:51.990Z,99075.86
2023-01-29T23:36:56.544Z,99080.08
2023-01-29T23:40:02.939Z,99080.90
2023-01-29T23:43:09.362Z,99076.86
2023-01-29T23:46:13.968Z,99068.56
2023-01-29T23:49:20.254Z,99062.06
2023-01-29T23:52:24.864Z,99059.58
2023-01-29T23:55:30.940Z,99051.04
2023-01-29T23:58:37.151Z,99045.66
